createdAt,value
2018-05-14T00:00:11.162Z,120.70
2018-05-14T00:01:11.121Z,118.10
2018-05-14T00:02:11.085Z,124.80
2018-05-14T00:03:11.044Z,113.70
2018-05-14T00:04:11.006Z,118.50
2018-05-14T00:05:10.974Z,111.60
2018-05-14T00:06:10.933Z,111.10
2018-05-14T00:07:10.897Z,106.10
2018-05-14T00:08:10.859Z,116.20
2018-05-14T00:09:10.818Z,118.60
2018-05-14T00:10:10.784Z,114.80
2018-05-14T00:11:10.749Z,111.90
2018-05-14T00:12:10.719Z,101.70
2018-05-14T00:13:10.678Z,118.70
2018-05-14T00:14:10.639Z,111.00
2018-05-14T00:15:10.599Z,113.80
2018-05-14T00:16:10.558Z,113.90
2018-05-14T00:17:10.523Z,113.50
2018-05-14T00:18:10.486Z,102.00
2018-05-14T00:19:10.450Z,99.30
2018-05-14T00:20:10.455Z,98.80
2018-05-14T00:21:10.371Z,92.00
2018-05-14T00:22:10.337Z,101.70
2018-05-14T00:23:10.302Z,102.40
2018-05-14T00:24:10.267Z,104.20
2018-05-14T00:25:10.231Z,107.60
2018-05-14T00:26:10.194Z,110.50
2018-05-14T00:27:10.150Z,104.70
2018-05-14T00:28:10.110Z,108.20
2018-05-14T00:29:10.076Z,104.70
2018-05-14T00:30:10.039Z,104.50
2018-05-14T00:31:10.009Z,104.00
2018-05-14T00:32:09.968Z,112.70
2018-05-14T00:33:09.929Z,112.40
2018-05-14T00:34:09.893Z,121.20
2018-05-14T00:35:09.853Z,117.20
2018-05-14T00:36:09.811Z,115.20
2018-05-14T00:37:09.783Z,110.20
2018-05-14T00:38:10.134Z,130.60
2018-05-14T00:39:09.706Z,123.30
2018-05-14T00:40:09.662Z,116.50
2018-05-14T00:41:09.626Z,128.60
2018-05-14T00:42:09.591Z,143.10
2018-05-14T00:43:09.566Z,130.40
2018-05-14T00:44:09.519Z,126.40
2018-05-14T00:45:10.136Z,123.80
2018-05-14T00:46:09.447Z,120.30
2018-05-14T00:47:09.405Z,133.70
2018-05-14T00:48:09.364Z,129.00
2018-05-14T00:49:09.329Z,146.50
2018-05-14T00:50:09.293Z,125.00
2018-05-14T00:51:09.257Z,126.90
2018-05-14T00:52:09.229Z,128.50
2018-05-14T00:53:09.178Z,142.60
2018-05-14T00:54:09.149Z,151.70
2018-05-14T00:55:09.109Z,141.40
2018-05-14T00:56:09.072Z,165.90
2018-05-14T00:57:09.035Z,159.30
2018-05-14T00:58:08.995Z,172.60
2018-05-14T00:59:08.957Z,161.60
2018-05-14T01:00:08.918Z,185.30
2018-05-14T01:01:08.880Z,159.70
2018-05-14T01:02:08.844Z,185.20
2018-05-14T01:03:08.809Z,195.00
2018-05-14T01:04:08.772Z,213.60
2018-05-14T01:05:08.734Z,183.40
2018-05-14T01:06:08.698Z,179.70
2018-05-14T01:07:08.661Z,177.10
2018-05-14T01:08:08.618Z,210.60
2018-05-14T01:09:08.591Z,196.30
2018-05-14T01:10:08.547Z,206.90
2018-05-14T01:11:08.511Z,187.40
2018-05-14T01:12:08.477Z,225.20
2018-05-14T01:13:08.430Z,243.70
2018-05-14T01:14:08.398Z,245.30
2018-05-14T01:15:08.360Z,215.60
2018-05-14T01:16:08.324Z,245.40
2018-05-14T01:17:08.287Z,225.00
2018-05-14T01:18:08.248Z,260.20
2018-05-14T01:19:08.210Z,239.00
2018-05-14T01:20:08.168Z,248.30
2018-05-14T01:21:08.130Z,341.60
2018-05-14T01:22:08.097Z,262.30
2018-05-14T01:23:08.062Z,222.50
2018-05-14T01:24:08.024Z,250.40
2018-05-14T01:25:07.985Z,339.40
2018-05-14T01:26:07.949Z,334.10
2018-05-14T01:27:07.912Z,340.90
2018-05-14T01:28:07.939Z,311.40
2018-05-14T01:29:07.838Z,282.10
2018-05-14T01:30:07.799Z,350.40
2018-05-14T01:31:07.763Z,292.70
2018-05-14T01:32:07.724Z,278.80
2018-05-14T01:33:07.683Z,304.60
2018-05-14T01:34:07.647Z,324.50
2018-05-14T01:35:07.610Z,303.50
2018-05-14T01:36:07.576Z,341.90
2018-05-14T01:37:07.539Z,404.20
2018-05-14T01:38:07.500Z,443.20
2018-05-14T01:39:07.468Z,432.60
2018-05-14T01:40:07.422Z,406.50
2018-05-14T01:41:07.388Z,336.90
2018-05-14T01:42:07.350Z,348.70
2018-05-14T01:43:07.312Z,311.40
2018-05-14T01:44:07.272Z,320.00
2018-05-14T01:45:07.232Z,197.40
2018-05-14T01:46:07.201Z,330.00
2018-05-14T01:47:07.168Z,312.50
2018-05-14T01:48:07.124Z,349.90
2018-05-14T01:49:07.087Z,408.00
2018-05-14T01:50:07.051Z,460.50
2018-05-14T01:51:07.012Z,368.10
2018-05-14T01:52:06.968Z,327.90
2018-05-14T01:53:06.935Z,298.60
2018-05-14T01:54:06.899Z,316.80
2018-05-14T01:55:06.864Z,339.20
2018-05-14T01:56:06.827Z,385.60
2018-05-14T01:57:06.785Z,349.00
2018-05-14T01:58:06.749Z,402.60
2018-05-14T01:59:06.712Z,502.00
2018-05-14T02:00:06.677Z,420.40
2018-05-14T02:01:06.640Z,368.00
2018-05-14T02:02:06.600Z,369.00
2018-05-14T02:03:06.563Z,297.50
2018-05-14T02:04:06.524Z,366.30
2018-05-14T02:05:06.485Z,403.10
2018-05-14T02:06:06.450Z,412.10
2018-05-14T02:07:06.418Z,439.50
2018-05-14T02:08:06.379Z,346.30
2018-05-14T02:09:06.343Z,366.80
2018-05-14T02:10:06.302Z,426.80
2018-05-14T02:11:06.269Z,396.80
2018-05-14T02:12:06.225Z,372.00
2018-05-14T02:13:06.265Z,359.20
2018-05-14T02:14:06.152Z,336.30
2018-05-14T02:15:06.116Z,373.10
2018-05-14T02:16:06.078Z,502.90
2018-05-14T02:17:06.039Z,513.60
2018-05-14T02:18:06.002Z,375.40
2018-05-14T02:19:06.658Z,368.70
2018-05-14T02:20:05.931Z,481.30
2018-05-14T02:21:05.892Z,441.90
2018-05-14T02:22:05.856Z,460.80
2018-05-14T02:23:05.816Z,453.30
2018-05-14T02:24:05.772Z,410.80
2018-05-14T02:25:05.741Z,400.90
2018-05-14T02:26:05.701Z,389.20
2018-05-14T02:27:05.667Z,414.00
2018-05-14T02:28:05.630Z,428.20
2018-05-14T02:29:05.590Z,500.80
2018-05-14T02:30:05.552Z,561.10
2018-05-14T02:31:05.518Z,504.40
2018-05-14T02:32:05.484Z,445.40
2018-05-14T02:33:05.442Z,445.60
2018-05-14T02:34:05.408Z,354.70
2018-05-14T02:35:05.366Z,392.30
2018-05-14T02:36:05.329Z,399.10
2018-05-14T02:37:05.287Z,481.40
2018-05-14T02:38:05.255Z,402.80
2018-05-14T02:39:05.222Z,321.20
2018-05-14T02:40:05.185Z,340.10
2018-05-14T02:41:05.150Z,392.20
2018-05-14T02:42:05.109Z,382.40
2018-05-14T02:43:05.070Z,344.80
2018-05-14T02:44:05.031Z,313.00
2018-05-14T02:45:04.995Z,380.70
2018-05-14T02:46:04.956Z,350.20
2018-05-14T02:47:04.924Z,342.30
2018-05-14T02:48:04.876Z,454.00
2018-05-14T02:49:04.848Z,469.90
2018-05-14T02:50:04.809Z,416.10
2018-05-14T02:51:04.779Z,397.30
2018-05-14T02:52:04.736Z,421.80
2018-05-14T02:53:04.700Z,418.20
2018-05-14T02:54:04.662Z,374.50
2018-05-14T02:55:04.621Z,390.90
2018-05-14T02:56:04.580Z,299.60
2018-05-14T02:57:04.545Z,472.20
2018-05-14T02:58:04.526Z,454.40
2018-05-14T02:59:04.475Z,449.80
2018-05-14T03:00:04.438Z,488.20
2018-05-14T03:01:04.398Z,585.20
2018-05-14T03:02:04.362Z,508.70
2018-05-14T03:03:04.331Z,437.20
2018-05-14T03:04:04.288Z,390.50
2018-05-14T03:05:04.251Z,424.60
2018-05-14T03:06:04.257Z,484.50
2018-05-14T03:07:04.174Z,389.40
2018-05-14T03:08:04.135Z,377.40
2018-05-14T03:09:04.147Z,412.00
2018-05-14T03:10:04.060Z,368.00
2018-05-14T03:11:04.030Z,439.60
2018-05-14T03:12:03.987Z,368.80
2018-05-14T03:13:03.949Z,376.20
2018-05-14T03:14:03.914Z,419.90
2018-05-14T03:15:03.871Z,428.40
2018-05-14T03:16:03.835Z,444.00
2018-05-14T03:17:03.806Z,404.70
2018-05-14T03:18:03.764Z,347.90
2018-05-14T03:19:03.723Z,367.30
2018-05-14T03:20:03.685Z,355.00
2018-05-14T03:21:03.649Z,338.30
2018-05-14T03:22:03.616Z,314.70
2018-05-14T03:23:03.582Z,338.10
2018-05-14T03:24:03.543Z,353.00
2018-05-14T03:25:03.508Z,371.80
2018-05-14T03:26:03.468Z,372.90
2018-05-14T03:27:03.426Z,371.80
2018-05-14T03:28:03.389Z,366.20
2018-05-14T03:29:03.352Z,430.70
2018-05-14T03:30:03.313Z,393.50
2018-05-14T03:31:03.280Z,422.10
2018-05-14T03:32:03.242Z,412.00
2018-05-14T03:33:03.201Z,386.40
2018-05-14T03:34:03.161Z,341.10
2018-05-14T03:35:03.133Z,331.50
2018-05-14T03:36:03.091Z,292.60
2018-05-14T03:37:03.071Z,343.20
2018-05-14T03:38:03.018Z,280.60
2018-05-14T03:39:02.976Z,291.60
2018-05-14T03:40:02.938Z,254.30
2018-05-14T03:41:02.901Z,258.60
2018-05-14T03:42:02.864Z,289.00
2018-05-14T03:43:02.831Z,281.80
2018-05-14T03:44:02.791Z,271.50
2018-05-14T03:45:02.758Z,265.00
2018-05-14T03:46:02.720Z,276.30
2018-05-14T03:47:02.678Z,265.50
2018-05-14T03:48:02.640Z,266.60
2018-05-14T03:49:02.605Z,231.20
2018-05-14T03:50:02.572Z,244.50
2018-05-14T03:51:02.527Z,280.50
2018-05-14T03:52:02.491Z,307.80
2018-05-14T03:53:02.454Z,287.60
2018-05-14T03:54:02.417Z,277.10
2018-05-14T03:55:02.388Z,279.90
2018-05-14T03:56:02.342Z,234.80
2018-05-14T03:57:02.306Z,241.70
2018-05-14T03:58:02.270Z,259.50
2018-05-14T03:59:02.228Z,264.80
2018-05-14T04:00:02.192Z,257.40
2018-05-14T04:01:02.160Z,255.90
2018-05-14T04:02:02.114Z,268.50
2018-05-14T04:03:02.085Z,264.30
2018-05-14T04:04:02.046Z,278.30
2018-05-14T04:05:02.005Z,250.20
2018-05-14T04:06:01.965Z,237.70
2018-05-14T04:07:01.937Z,239.90
2018-05-14T04:08:01.893Z,242.10
2018-05-14T04:09:01.857Z,260.20
2018-05-14T04:10:01.819Z,273.80
2018-05-14T04:11:01.778Z,271.40
2018-05-14T04:12:01.745Z,288.30
2018-05-14T04:13:01.704Z,253.70
2018-05-14T04:14:01.661Z,270.50
2018-05-14T04:15:01.642Z,282.50
2018-05-14T04:16:01.594Z,274.50
2018-05-14T04:17:01.559Z,266.10
2018-05-14T04:18:01.522Z,250.80
2018-05-14T04:19:01.482Z,235.30
2018-05-14T04:20:01.443Z,253.80
2018-05-14T04:21:01.406Z,228.40
2018-05-14T04:22:01.375Z,235.60
2018-05-14T04:23:01.329Z,242.90
2018-05-14T04:24:01.293Z,248.20
2018-05-14T04:25:01.258Z,246.00
2018-05-14T04:26:01.216Z,260.00
2018-05-14T04:27:01.185Z,251.10
2018-05-14T04:28:01.144Z,258.40
2018-05-14T04:29:01.108Z,247.10
2018-05-14T04:30:01.074Z,255.30
2018-05-14T04:31:01.036Z,258.50
2018-05-14T04:32:00.989Z,267.00
2018-05-14T04:33:00.956Z,266.50
2018-05-14T04:34:00.919Z,311.60
2018-05-14T04:35:00.890Z,265.40
2018-05-14T04:36:00.851Z,286.90
2018-05-14T04:37:00.807Z,253.00
2018-05-14T04:38:00.769Z,270.10
2018-05-14T04:39:00.737Z,286.20
2018-05-14T04:40:00.697Z,298.30
2018-05-14T04:41:00.658Z,364.10
2018-05-14T04:42:00.635Z,326.40
2018-05-14T04:43:00.594Z,327.20
2018-05-14T04:44:00.550Z,336.30
2018-05-14T04:45:00.511Z,400.20
2018-05-14T04:46:00.467Z,421.70
2018-05-14T04:47:00.440Z,424.10
2018-05-14T04:48:00.398Z,303.80
2018-05-14T04:49:00.362Z,375.50
2018-05-14T04:50:00.324Z,452.50
2018-05-14T04:51:00.283Z,461.20
2018-05-14T04:52:00.248Z,478.90
2018-05-14T04:53:00.218Z,514.20
2018-05-14T04:54:00.180Z,558.30
2018-05-14T04:55:00.135Z,492.80
2018-05-14T04:56:00.102Z,487.70
2018-05-14T04:57:00.061Z,499.40
2018-05-14T04:58:00.023Z,492.90
2018-05-14T04:58:59.989Z,585.80
2018-05-14T04:59:59.949Z,350.80
2018-05-14T05:00:59.912Z,462.20
2018-05-14T05:01:59.876Z,467.50
2018-05-14T05:02:59.833Z,481.60
2018-05-14T05:03:59.812Z,434.50
2018-05-14T05:04:59.830Z,485.40
2018-05-14T05:05:59.720Z,543.50
2018-05-14T05:06:59.689Z,533.40
2018-05-14T05:07:59.650Z,456.40
2018-05-14T05:08:59.610Z,545.70
2018-05-14T05:09:59.577Z,533.30
2018-05-14T05:10:59.538Z,479.90
2018-05-14T05:11:59.501Z,574.80
2018-05-14T05:12:59.464Z,610.50
2018-05-14T05:13:59.427Z,545.00
2018-05-14T05:14:59.382Z,489.60
2018-05-14T05:16:00.200Z,510.10
2018-05-14T05:16:59.317Z,521.70
2018-05-14T05:17:59.273Z,486.50
2018-05-14T05:18:59.241Z,575.00
2018-05-14T05:19:59.205Z,395.40
2018-05-14T05:20:59.165Z,473.90
2018-05-14T05:21:59.129Z,494.00
2018-05-14T05:22:59.092Z,473.00
2018-05-14T05:23:59.052Z,471.20
2018-05-14T05:24:59.017Z,563.60
2018-05-14T05:25:58.979Z,455.90
2018-05-14T05:26:58.937Z,519.90
2018-05-14T05:27:58.902Z,587.50
2018-05-14T05:28:58.867Z,524.30
2018-05-14T05:29:58.829Z,471.10
2018-05-14T05:30:58.796Z,503.10
2018-05-14T05:31:58.755Z,497.00
2018-05-14T05:32:58.716Z,448.30
2018-05-14T05:33:58.683Z,515.50
2018-05-14T05:34:58.640Z,582.90
2018-05-14T05:35:58.603Z,525.50
2018-05-14T05:36:58.564Z,498.60
2018-05-14T05:37:58.565Z,446.80
2018-05-14T05:38:58.497Z,565.20
2018-05-14T05:39:58.456Z,543.50
2018-05-14T05:40:58.421Z,472.50
2018-05-14T05:41:59.206Z,502.50
2018-05-14T05:42:58.345Z,464.20
2018-05-14T05:43:58.306Z,537.30
2018-05-14T05:44:58.275Z,449.50
2018-05-14T05:45:58.242Z,438.60
2018-05-14T05:46:58.195Z,579.10
2018-05-14T05:47:58.154Z,578.00
2018-05-14T05:48:58.119Z,599.30
2018-05-14T05:49:58.082Z,631.60
2018-05-14T05:50:58.047Z,567.60
2018-05-14T05:51:58.015Z,500.80
2018-05-14T05:52:57.979Z,501.10
2018-05-14T05:53:57.934Z,518.70
2018-05-14T05:54:57.891Z,503.60
2018-05-14T05:55:57.858Z,482.40
2018-05-14T05:56:57.822Z,424.60
2018-05-14T05:57:57.790Z,571.80
2018-05-14T05:58:57.747Z,610.40
2018-05-14T05:59:57.708Z,556.30
2018-05-14T06:00:58.212Z,552.80
2018-05-14T06:01:57.629Z,500.30
2018-05-14T06:02:57.600Z,532.20
2018-05-14T06:03:57.561Z,604.50
2018-05-14T06:04:57.525Z,559.60
2018-05-14T06:05:57.491Z,534.70
2018-05-14T06:06:57.452Z,488.50
2018-05-14T06:07:57.411Z,565.00
2018-05-14T06:08:57.373Z,548.10
2018-05-14T06:09:57.336Z,573.70
2018-05-14T06:10:57.306Z,534.90
2018-05-14T06:11:57.263Z,538.40
2018-05-14T06:12:57.224Z,507.00
2018-05-14T06:13:57.184Z,544.20
2018-05-14T06:14:57.152Z,652.70
2018-05-14T06:15:57.117Z,577.80
2018-05-14T06:16:57.082Z,544.20
2018-05-14T06:17:57.043Z,582.70
2018-05-14T06:18:57.000Z,478.20
2018-05-14T06:19:56.964Z,582.00
2018-05-14T06:20:56.923Z,575.50
2018-05-14T06:21:56.885Z,581.90
2018-05-14T06:22:56.855Z,637.70
2018-05-14T06:23:56.823Z,632.10
2018-05-14T06:24:56.782Z,616.40
2018-05-14T06:25:56.743Z,607.60
2018-05-14T06:26:56.700Z,677.40
2018-05-14T06:27:56.668Z,658.90
2018-05-14T06:28:57.219Z,629.30
2018-05-14T06:29:56.600Z,583.70
2018-05-14T06:30:56.556Z,592.30
2018-05-14T06:31:56.518Z,659.90
2018-05-14T06:32:56.478Z,565.80
2018-05-14T06:33:56.444Z,664.50
2018-05-14T06:34:56.410Z,690.20
2018-05-14T06:35:56.373Z,681.50
2018-05-14T06:36:56.332Z,553.00
2018-05-14T06:37:56.300Z,612.80
2018-05-14T06:38:56.259Z,685.30
2018-05-14T06:39:56.220Z,600.90
2018-05-14T06:40:56.186Z,701.60
2018-05-14T06:41:56.145Z,629.70
2018-05-14T06:42:56.113Z,688.50
2018-05-14T06:43:56.078Z,673.50
2018-05-14T06:44:56.036Z,713.80
2018-05-14T06:45:55.999Z,572.10
2018-05-14T06:46:55.987Z,610.50
2018-05-14T06:47:55.927Z,665.20
2018-05-14T06:48:55.890Z,601.00
2018-05-14T06:49:55.869Z,607.00
2018-05-14T06:50:55.811Z,615.30
2018-05-14T06:51:55.774Z,684.00
2018-05-14T06:52:55.738Z,629.00
2018-05-14T06:53:55.701Z,642.00
2018-05-14T06:54:55.668Z,626.20
2018-05-14T06:55:55.629Z,623.30
2018-05-14T06:56:55.599Z,696.60
2018-05-14T06:57:55.557Z,673.60
2018-05-14T06:58:55.516Z,731.10
2018-05-14T06:59:55.481Z,731.90
2018-05-14T07:00:55.449Z,637.60
2018-05-14T07:01:55.411Z,713.30
2018-05-14T07:02:55.367Z,592.00
2018-05-14T07:03:55.333Z,635.40
2018-05-14T07:04:55.296Z,573.70
2018-05-14T07:05:55.261Z,645.20
2018-05-14T07:06:55.228Z,535.30
2018-05-14T07:07:55.187Z,605.40
2018-05-14T07:08:55.151Z,661.50
2018-05-14T07:09:55.115Z,698.40
2018-05-14T07:10:55.073Z,701.90
2018-05-14T07:11:55.038Z,649.80
2018-05-14T07:12:55.003Z,628.70
2018-05-14T07:13:54.964Z,605.70
2018-05-14T07:14:54.932Z,707.60
2018-05-14T07:15:54.894Z,701.40
2018-05-14T07:16:54.854Z,679.00
2018-05-14T07:17:54.821Z,740.70
2018-05-14T07:18:54.786Z,562.50
2018-05-14T07:19:54.872Z,681.60
2018-05-14T07:20:54.709Z,701.60
2018-05-14T07:21:54.674Z,669.00
2018-05-14T07:22:54.633Z,674.80
2018-05-14T07:23:54.602Z,675.70
2018-05-14T07:24:54.560Z,661.20
2018-05-14T07:25:54.524Z,628.70
2018-05-14T07:26:54.500Z,704.80
2018-05-14T07:27:54.452Z,568.00
2018-05-14T07:28:54.417Z,689.70
2018-05-14T07:29:54.378Z,632.40
2018-05-14T07:30:54.347Z,678.60
2018-05-14T07:31:54.304Z,635.00
2018-05-14T07:32:54.269Z,643.80
2018-05-14T07:33:54.235Z,608.00
2018-05-14T07:34:54.193Z,587.90
2018-05-14T07:35:54.155Z,573.50
2018-05-14T07:36:54.117Z,688.40
2018-05-14T07:37:54.082Z,625.80
2018-05-14T07:38:54.051Z,652.40
2018-05-14T07:39:54.016Z,626.50
2018-05-14T07:40:53.978Z,567.80
2018-05-14T07:41:53.940Z,597.30
2018-05-14T07:42:53.907Z,589.50
2018-05-14T07:43:53.862Z,538.80
2018-05-14T07:44:53.825Z,592.70
2018-05-14T07:45:53.795Z,624.50
2018-05-14T07:46:53.756Z,742.40
2018-05-14T07:47:53.723Z,592.40
2018-05-14T07:48:53.680Z,585.50
2018-05-14T07:49:54.238Z,606.40
2018-05-14T07:50:53.610Z,584.50
2018-05-14T07:51:53.576Z,685.40
2018-05-14T07:52:54.240Z,652.00
2018-05-14T07:53:53.502Z,632.70
2018-05-14T07:54:53.464Z,620.20
2018-05-14T07:55:53.427Z,628.40
2018-05-14T07:56:53.384Z,620.10
2018-05-14T07:57:53.355Z,760.80
2018-05-14T07:58:53.318Z,717.60
2018-05-14T07:59:53.282Z,623.20
2018-05-14T08:00:53.745Z,638.00
2018-05-14T08:01:53.218Z,587.20
2018-05-14T08:02:53.171Z,583.20
2018-05-14T08:03:53.133Z,591.10
2018-05-14T08:04:53.099Z,614.60
2018-05-14T08:05:53.137Z,533.30
2018-05-14T08:06:53.024Z,548.80
2018-05-14T08:07:52.985Z,607.30
2018-05-14T08:08:52.948Z,598.50
2018-05-14T08:09:52.914Z,586.20
2018-05-14T08:10:52.879Z,590.90
2018-05-14T08:11:52.846Z,573.40
2018-05-14T08:12:52.810Z,585.10
2018-05-14T08:13:52.769Z,557.40
2018-05-14T08:14:52.736Z,489.00
2018-05-14T08:15:52.693Z,608.70
2018-05-14T08:16:52.660Z,604.60
2018-05-14T08:17:52.622Z,525.20
2018-05-14T08:18:52.590Z,521.70
2018-05-14T08:19:52.555Z,484.60
2018-05-14T08:20:52.510Z,634.30
2018-05-14T08:21:52.487Z,572.60
2018-05-14T08:22:52.449Z,549.30
2018-05-14T08:23:52.408Z,599.80
2018-05-14T08:24:52.372Z,486.40
2018-05-14T08:25:52.337Z,537.70
2018-05-14T08:26:52.298Z,568.80
2018-05-14T08:27:52.257Z,496.90
2018-05-14T08:28:52.218Z,552.70
2018-05-14T08:29:52.192Z,509.90
2018-05-14T08:30:52.152Z,509.50
2018-05-14T08:31:52.120Z,441.70
2018-05-14T08:32:52.081Z,524.10
2018-05-14T08:33:52.044Z,490.40
2018-05-14T08:34:52.021Z,426.40
2018-05-14T08:35:51.970Z,405.50
2018-05-14T08:36:51.937Z,400.10
2018-05-14T08:37:51.900Z,399.60
2018-05-14T08:38:51.868Z,388.00
2018-05-14T08:39:51.821Z,435.80
2018-05-14T08:40:51.789Z,501.80
2018-05-14T08:41:51.756Z,408.30
2018-05-14T08:42:51.718Z,401.70
2018-05-14T08:43:51.684Z,385.40
2018-05-14T08:44:51.654Z,383.30
2018-05-14T08:45:51.611Z,411.30
2018-05-14T08:46:51.577Z,399.40
2018-05-14T08:47:51.615Z,398.70
2018-05-14T08:48:51.497Z,404.80
2018-05-14T08:49:51.463Z,445.40
2018-05-14T08:50:51.431Z,424.90
2018-05-14T08:51:51.398Z,500.80
2018-05-14T08:52:51.356Z,464.50
2018-05-14T08:53:51.319Z,502.60
2018-05-14T08:54:51.286Z,450.80
2018-05-14T08:55:51.250Z,425.40
2018-05-14T08:56:51.218Z,423.40
2018-05-14T08:57:51.178Z,412.60
2018-05-14T08:58:51.142Z,410.70
2018-05-14T08:59:51.100Z,421.30
2018-05-14T09:00:51.111Z,405.00
2018-05-14T09:01:51.035Z,382.00
2018-05-14T09:02:51.001Z,413.00
2018-05-14T09:03:50.961Z,419.90
2018-05-14T09:04:50.927Z,381.80
2018-05-14T09:05:50.891Z,373.00
2018-05-14T09:06:50.853Z,354.60
2018-05-14T09:07:50.816Z,364.00
2018-05-14T09:08:50.780Z,392.10
2018-05-14T09:09:50.746Z,409.10
2018-05-14T09:10:50.710Z,392.20
2018-05-14T09:11:50.666Z,412.10
2018-05-14T09:12:50.631Z,451.20
2018-05-14T09:13:50.602Z,421.30
2018-05-14T09:14:50.566Z,397.50
2018-05-14T09:15:50.529Z,409.30
2018-05-14T09:16:50.501Z,410.20
2018-05-14T09:17:50.461Z,399.50
2018-05-14T09:18:50.420Z,392.40
2018-05-14T09:19:50.383Z,385.60
2018-05-14T09:20:50.347Z,399.90
2018-05-14T09:21:50.311Z,386.60
2018-05-14T09:22:50.281Z,391.30
2018-05-14T09:23:50.764Z,377.90
2018-05-14T09:24:50.201Z,381.20
2018-05-14T09:25:50.176Z,395.50
2018-05-14T09:26:50.132Z,390.10
2018-05-14T09:27:50.098Z,389.30
2018-05-14T09:28:50.072Z,401.60
2018-05-14T09:29:50.025Z,383.80
2018-05-14T09:30:49.989Z,356.20
2018-05-14T09:31:49.948Z,365.30
2018-05-14T09:32:49.915Z,351.00
2018-05-14T09:33:49.885Z,343.30
2018-05-14T09:34:49.849Z,336.30
2018-05-14T09:35:49.814Z,305.80
2018-05-14T09:36:49.781Z,309.90
2018-05-14T09:37:49.743Z,308.00
2018-05-14T09:38:49.707Z,313.10
2018-05-14T09:39:49.672Z,336.80
2018-05-14T09:40:49.644Z,345.80
2018-05-14T09:41:49.603Z,319.40
2018-05-14T09:42:49.573Z,331.80
2018-05-14T09:43:49.524Z,329.30
2018-05-14T09:44:49.485Z,345.80
2018-05-14T09:45:49.454Z,337.40
2018-05-14T09:46:49.422Z,339.60
2018-05-14T09:47:49.387Z,350.60
2018-05-14T09:48:49.349Z,313.00
2018-05-14T09:49:50.163Z,320.60
2018-05-14T09:50:49.276Z,320.20
2018-05-14T09:51:49.358Z,318.60
2018-05-14T09:52:49.339Z,313.30
2018-05-14T09:53:49.171Z,322.10
2018-05-14T09:54:49.137Z,300.20
2018-05-14T09:55:49.775Z,317.80
2018-05-14T09:56:49.066Z,305.60
2018-05-14T09:57:49.029Z,300.80
2018-05-14T09:58:48.996Z,275.90
2018-05-14T09:59:48.959Z,266.90
2018-05-14T10:00:48.927Z,270.80
2018-05-14T10:01:48.889Z,275.60
2018-05-14T10:02:48.850Z,272.40
2018-05-14T10:03:48.815Z,273.60
2018-05-14T10:04:48.777Z,275.20
2018-05-14T10:05:48.751Z,273.30
2018-05-14T10:06:48.723Z,293.00
2018-05-14T10:07:48.676Z,275.10
2018-05-14T10:08:48.641Z,286.80
2018-05-14T10:09:48.607Z,272.50
2018-05-14T10:10:48.572Z,282.30
2018-05-14T10:11:49.278Z,283.00
2018-05-14T10:12:48.501Z,274.00
2018-05-14T10:13:48.463Z,271.10
2018-05-14T10:14:48.431Z,291.80
2018-05-14T10:15:48.391Z,304.10
2018-05-14T10:16:48.353Z,295.90
2018-05-14T10:17:49.278Z,289.10
2018-05-14T10:18:48.350Z,280.40
2018-05-14T10:19:48.258Z,265.70
2018-05-14T10:20:48.218Z,272.60
2018-05-14T10:21:48.182Z,276.80
2018-05-14T10:22:48.149Z,252.30
2018-05-14T10:23:48.108Z,242.90
2018-05-14T10:24:48.069Z,240.40
2018-05-14T10:25:48.044Z,239.30
2018-05-14T10:26:48.009Z,225.90
2018-05-14T10:27:47.975Z,222.60
2018-05-14T10:28:47.930Z,223.50
2018-05-14T10:29:47.896Z,223.90
2018-05-14T10:30:47.866Z,223.00
2018-05-14T10:31:47.832Z,236.90
2018-05-14T10:32:47.795Z,232.10
2018-05-14T10:33:47.763Z,230.10
2018-05-14T10:34:47.724Z,240.10
2018-05-14T10:35:48.283Z,224.00
2018-05-14T10:36:47.651Z,222.90
2018-05-14T10:37:47.618Z,235.60
2018-05-14T10:38:47.586Z,227.70
2018-05-14T10:39:47.552Z,237.90
2018-05-14T10:40:47.601Z,212.80
2018-05-14T10:41:47.488Z,211.40
2018-05-14T10:42:47.443Z,202.00
2018-05-14T10:43:47.408Z,197.50
2018-05-14T10:44:47.380Z,185.80
2018-05-14T10:45:47.344Z,189.60
2018-05-14T10:46:47.359Z,191.90
2018-05-14T10:47:47.268Z,189.20
2018-05-14T10:48:47.230Z,174.40
2018-05-14T10:49:47.250Z,166.50
2018-05-14T10:50:47.169Z,167.00
2018-05-14T10:51:47.137Z,160.10
2018-05-14T10:52:47.138Z,159.50
2018-05-14T10:53:47.791Z,163.30
2018-05-14T10:54:47.030Z,156.50
2018-05-14T10:55:46.992Z,152.80
2018-05-14T10:56:46.959Z,158.50
2018-05-14T10:57:46.930Z,149.20
2018-05-14T10:58:46.922Z,144.10
2018-05-14T10:59:46.860Z,138.70
2018-05-14T11:00:46.825Z,136.80
2018-05-14T11:01:47.287Z,134.70
2018-05-14T11:02:46.760Z,134.70
2018-05-14T11:03:46.725Z,132.80
2018-05-14T11:04:46.691Z,137.10
2018-05-14T11:05:46.657Z,136.90
2018-05-14T11:06:46.620Z,134.00
2018-05-14T11:07:46.581Z,130.90
2018-05-14T11:08:46.550Z,132.20
2018-05-14T11:09:46.517Z,136.50
2018-05-14T11:10:46.488Z,129.90
2018-05-14T11:11:46.456Z,129.60
2018-05-14T11:12:46.417Z,118.80
2018-05-14T11:13:46.384Z,125.50
2018-05-14T11:14:46.348Z,119.20
2018-05-14T11:15:46.310Z,131.20
2018-05-14T11:16:46.287Z,127.90
2018-05-14T11:17:46.246Z,128.50
2018-05-14T11:18:46.307Z,128.90
2018-05-14T11:19:46.176Z,128.20
2018-05-14T11:20:46.141Z,129.20
2018-05-14T11:21:46.113Z,128.50
2018-05-14T11:22:46.080Z,127.60
2018-05-14T11:23:46.045Z,133.70
2018-05-14T11:24:46.014Z,132.10
2018-05-14T11:25:45.978Z,124.30
2018-05-14T11:26:45.939Z,131.90
2018-05-14T11:27:45.929Z,121.80
2018-05-14T11:28:45.869Z,123.40
2018-05-14T11:29:45.837Z,120.70
2018-05-14T11:30:45.811Z,118.80
2018-05-14T11:31:45.774Z,126.30
2018-05-14T11:32:45.738Z,113.70
2018-05-14T11:33:45.705Z,120.70
2018-05-14T11:34:45.673Z,124.30
2018-05-14T11:35:45.642Z,125.10
2018-05-14T11:36:45.610Z,127.20
2018-05-14T11:37:45.576Z,111.00
2018-05-14T11:38:45.536Z,114.00
2018-05-14T11:39:45.500Z,107.20
2018-05-14T11:40:45.474Z,112.50
2018-05-14T11:41:45.802Z,118.80
2018-05-14T11:42:45.417Z,114.70
2018-05-14T11:43:45.377Z,116.90
2018-05-14T11:44:45.338Z,119.80
2018-05-14T11:45:45.307Z,122.10
2018-05-14T11:46:45.265Z,125.80
2018-05-14T11:47:45.235Z,121.20
2018-05-14T11:48:45.202Z,119.20
2018-05-14T11:49:45.806Z,114.20
2018-05-14T11:50:45.150Z,118.40
2018-05-14T11:51:45.104Z,118.50
2018-05-14T11:52:45.068Z,116.90
2018-05-14T11:53:45.033Z,114.20
2018-05-14T11:54:45.005Z,113.50
2018-05-14T11:55:44.970Z,116.00
2018-05-14T11:56:45.872Z,118.40
2018-05-14T11:57:44.936Z,112.30
2018-05-14T11:58:44.865Z,120.10
2018-05-14T11:59:44.864Z,123.80
2018-05-14T12:00:44.801Z,115.30
2018-05-14T12:01:44.766Z,118.60
2018-05-14T12:02:44.745Z,116.50
2018-05-14T12:03:44.703Z,120.00
2018-05-14T12:04:44.667Z,125.50
2018-05-14T12:05:44.644Z,122.80
2018-05-14T12:06:44.611Z,124.50
2018-05-14T12:07:44.570Z,130.00
2018-05-14T12:08:44.538Z,126.10
2018-05-14T12:09:44.526Z,129.00
2018-05-14T12:10:44.466Z,125.90
2018-05-14T12:11:44.434Z,120.40
2018-05-14T12:12:45.204Z,124.30
2018-05-14T12:13:44.370Z,124.80
2018-05-14T12:14:44.337Z,125.80
2018-05-14T12:15:44.335Z,130.30
2018-05-14T12:16:44.293Z,126.50
2018-05-14T12:17:44.246Z,128.10
2018-05-14T12:18:44.201Z,128.80
2018-05-14T12:19:44.175Z,126.80
2018-05-14T12:20:44.138Z,128.30
2018-05-14T12:21:44.105Z,128.90
2018-05-14T12:22:44.070Z,136.00
2018-05-14T12:23:44.061Z,129.90
2018-05-14T12:24:44.314Z,129.50
2018-05-14T12:25:44.041Z,130.40
2018-05-14T12:26:43.941Z,130.20
2018-05-14T12:27:43.904Z,129.50